Time;durP1;ratioP1;P1;durP2;ratioP2;P2;SDS_P1;SDS_P2;PMS_P1;PMS_P2;Temp;Humidity;BMP_temperature;BMP_pressure;BME280_temperature;BME280_humidity;BME280_pressure;Samples;Min_cycle;Max_cycle;Signal;HPM_P1;HPM_P2
2022/10/01 00:02:09;;;;;;;0.60;0.60;;;;;;;;;;5015011;28;93804;-54
2022/10/01 00:04:38;;;;;;;0.40;0.40;;;;;;;;;;5017218;28;92966;-54
2022/10/01 00:07:09;;;;;;;0.50;0.50;;;;;;;;;;5016411;28;92729;-54
2022/10/01 00:09:38;;;;;;;0.70;0.70;;;;;;;;;;5021234;28;92048;-53
2022/10/01 00:12:06;;;;;;;0.50;0.50;;;;;;;;;;5017958;28;92930;-53
2022/10/01 00:14:37;;;;;;;0.57;0.57;;;;;;;;;;5025574;28;92599;-53
2022/10/01 00:17:06;;;;;;;0.50;0.50;;;;;;;;;;5018899;28;93395;-53
2022/10/01 00:19:37;;;;;;;0.57;0.57;;;;;;;;;;5016887;28;92048;-53
2022/10/01 00:22:05;;;;;;;0.47;0.47;;;;;;;;;;5002098;28;93892;-53
2022/10/01 00:24:35;;;;;;;0.40;0.40;;;;;;;;;;5017199;28;93711;-53
2022/10/01 00:27:03;;;;;;;1.60;1.03;;;;;;;;;;5017426;28;93859;-53
2022/10/01 00:29:31;;;;;;;0.50;0.50;;;;;;;;;;5017917;28;92038;-54
2022/10/01 00:32:00;;;;;;;0.97;0.60;;;;;;;;;;5017628;28;94129;-54
2022/10/01 00:34:28;;;;;;;0.60;0.60;;;;;;;;;;5017465;28;93887;-54
2022/10/01 00:36:58;;;;;;;0.60;0.60;;;;;;;;;;5022678;28;92003;-53
2022/10/01 00:39:26;;;;;;;1.70;0.90;;;;;;;;;;5020264;28;91495;-53
2022/10/01 00:41:54;;;;;;;1.20;0.60;;;;;;;;;;5021480;28;93819;-54
2022/10/01 00:44:33;;;;;;;0.90;0.60;;;;;;;;;;5020752;28;94013;-54
2022/10/01 00:47:06;;;;;;;0.57;0.50;;;;;;;;;;5019931;28;93042;-54
2022/10/01 00:49:35;;;;;;;7.43;0.93;;;;;;;;;;5020648;28;92046;-53
2022/10/01 00:52:05;;;;;;;0.60;0.60;;;;;;;;;;5020196;28;94170;-54
2022/10/01 00:54:35;;;;;;;0.53;0.40;;;;;;;;;;5019128;28;92415;-54
2022/10/01 00:57:03;;;;;;;3.00;0.50;;;;;;;;;;5017785;28;92137;-54
2022/10/01 00:59:31;;;;;;;0.90;0.70;;;;;;;;;;5023144;28;92142;-54
2022/10/01 01:02:00;;;;;;;0.47;0.47;;;;;;;;;;5020424;28;93158;-53
2022/10/01 01:04:28;;;;;;;0.87;0.60;;;;;;;;;;5018551;28;94178;-53
2022/10/01 01:06:57;;;;;;;0.63;0.60;;;;;;;;;;5020307;28;92045;-54
2022/10/01 01:09:28;;;;;;;0.33;0.33;;;;;;;;;;5020025;28;91979;-54
2022/10/01 01:11:57;;;;;;;0.40;0.40;;;;;;;;;;5018443;28;95092;-53
2022/10/01 01:14:26;;;;;;;0.50;0.50;;;;;;;;;;5017276;28;93865;-53
2022/10/01 01:16:55;;;;;;;0.40;0.40;;;;;;;;;;5017871;28;92368;-54
2022/10/01 01:19:26;;;;;;;1.20;0.47;;;;;;;;;;5018634;28;93400;-54
2022/10/01 01:21:55;;;;;;;0.40;0.40;;;;;;;;;;5019281;28;93178;-54
2022/10/01 01:24:54;;;;;;;1.77;0.70;;;;;;;;;;5019410;28;92837;-53
2022/10/01 01:27:31;;;;;;;0.40;0.40;;;;;;;;;;4978579;28;92164;-54
2022/10/01 01:30:03;;;;;;;1.60;0.37;;;;;;;;;;5010433;28;91551;-54
2022/10/01 01:32:32;;;;;;;0.60;0.60;;;;;;;;;;5019750;28;93271;-54
2022/10/01 01:35:01;;;;;;;0.40;0.40;;;;;;;;;;5019820;28;92568;-54
2022/10/01 01:37:31;;;;;;;0.67;0.50;;;;;;;;;;5017324;28;93169;-54
2022/10/01 01:39:59;;;;;;;0.50;0.50;;;;;;;;;;5019775;28;92525;-53
2022/10/01 01:42:28;;;;;;;0.70;0.50;;;;;;;;;;5020888;28;93043;-52
2022/10/01 01:44:57;;;;;;;0.77;0.77;;;;;;;;;;5019350;28;92557;-54
2022/10/01 01:47:31;;;;;;;0.60;0.60;;;;;;;;;;5019288;28;92147;-53
2022/10/01 01:50:01;;;;;;;0.53;0.53;;;;;;;;;;5018602;28;92043;-53
2022/10/01 01:52:30;;;;;;;0.33;0.33;;;;;;;;;;5019500;28;92732;-54
2022/10/01 01:54:58;;;;;;;0.50;0.50;;;;;;;;;;5020346;28;92823;-54
2022/10/01 01:57:26;;;;;;;0.47;0.47;;;;;;;;;;5018030;28;92209;-54
2022/10/01 01:59:54;;;;;;;0.50;0.50;;;;;;;;;;5020869;28;92126;-54
2022/10/01 02:02:24;;;;;;;0.57;0.33;;;;;;;;;;5018962;28;94039;-53
2022/10/01 02:04:54;;;;;;;0.90;0.50;;;;;;;;;;5018656;28;95119;-54
2022/10/01 02:07:31;;;;;;;0.50;0.50;;;;;;;;;;5019423;28;92143;-54
2022/10/01 02:10:02;;;;;;;0.67;0.50;;;;;;;;;;5019542;28;91944;-54
2022/10/01 02:12:34;;;;;;;0.60;0.47;;;;;;;;;;5019953;28;92840;-54
2022/10/01 02:15:04;;;;;;;0.60;0.60;;;;;;;;;;5016360;28;93958;-54
2022/10/01 02:17:33;;;;;;;0.50;0.50;;;;;;;;;;5018501;28;92204;-53
2022/10/01 02:20:03;;;;;;;0.80;0.50;;;;;;;;;;5018726;28;92071;-54
2022/10/01 02:22:32;;;;;;;1.20;0.60;;;;;;;;;;5020030;28;94828;-53
2022/10/01 02:25:02;;;;;;;0.43;0.43;;;;;;;;;;5019090;28;92782;-53
2022/10/01 02:27:30;;;;;;;0.40;0.40;;;;;;;;;;5017625;28;94536;-54
2022/10/01 02:29:59;;;;;;;0.73;0.40;;;;;;;;;;5019309;28;92092;-54
2022/10/01 02:32:27;;;;;;;0.30;0.30;;;;;;;;;;5017978;28;92623;-53
2022/10/01 02:34:55;;;;;;;0.30;0.30;;;;;;;;;;5018335;28;92995;-54
2022/10/01 02:37:25;;;;;;;0.77;0.47;;;;;;;;;;5018685;28;92249;-54
2022/10/01 02:39:53;;;;;;;3.00;0.63;;;;;;;;;;5019725;28;92100;-54
2022/10/01 02:42:22;;;;;;;1.00;0.47;;;;;;;;;;5019224;28;92885;-54
2022/10/01 02:44:50;;;;;;;0.40;0.40;;;;;;;;;;5018496;28;92962;-54
2022/10/01 02:47:19;;;;;;;0.40;0.40;;;;;;;;;;5019044;28;92066;-58
2022/10/01 02:49:47;;;;;;;0.40;0.30;;;;;;;;;;5019369;28;92074;-54
2022/10/01 02:52:17;;;;;;;0.37;0.37;;;;;;;;;;5019198;28;93924;-54
2022/10/01 02:54:47;;;;;;;0.70;0.40;;;;;;;;;;5018590;28;94669;-55
2022/10/01 02:57:26;;;;;;;0.33;0.33;;;;;;;;;;5016842;28;92229;-53
2022/10/01 02:59:55;;;;;;;0.60;0.60;;;;;;;;;;5002704;28;91966;-54
2022/10/01 03:02:26;;;;;;;0.57;0.40;;;;;;;;;;5018254;28;93167;-54
2022/10/01 03:04:55;;;;;;;0.40;0.40;;;;;;;;;;5017905;28;92721;-54
2022/10/01 03:07:23;;;;;;;0.30;0.30;;;;;;;;;;5017327;28;91959;-54
2022/10/01 03:09:53;;;;;;;0.50;0.40;;;;;;;;;;5019252;28;91302;-54
2022/10/01 03:12:21;;;;;;;0.50;0.50;;;;;;;;;;5017900;28;94351;-54
2022/10/01 03:14:49;;;;;;;0.20;0.20;;;;;;;;;;5017338;28;92854;-54
2022/10/01 03:17:17;;;;;;;0.57;0.53;;;;;;;;;;5017686;28;93039;-53
2022/10/01 03:19:46;;;;;;;0.47;0.47;;;;;;;;;;5017599;28;93340;-54
2022/10/01 03:22:14;;;;;;;1.17;0.43;;;;;;;;;;5018956;28;93197;-53
2022/10/01 03:24:43;;;;;;;0.50;0.40;;;;;;;;;;5018197;28;93945;-54
2022/10/01 03:27:12;;;;;;;0.60;0.60;;;;;;;;;;5019139;28;91931;-54
2022/10/01 03:29:40;;;;;;;0.60;0.40;;;;;;;;;;5018538;28;92155;-54
2022/10/01 03:32:09;;;;;;;0.40;0.40;;;;;;;;;;5018592;28;93734;-54
2022/10/01 03:34:37;;;;;;;1.07;0.30;;;;;;;;;;5018800;28;94064;-54
2022/10/01 03:37:05;;;;;;;0.43;0.43;;;;;;;;;;5018925;28;92034;-54
2022/10/01 03:39:33;;;;;;;0.40;0.40;;;;;;;;;;5017689;28;92824;-54
2022/10/01 03:42:02;;;;;;;0.30;0.30;;;;;;;;;;5017276;28;94051;-54
2022/10/01 03:44:32;;;;;;;0.60;0.60;;;;;;;;;;5017118;28;93987;-54
2022/10/01 03:47:00;;;;;;;0.30;0.30;;;;;;;;;;5016980;28;92113;-54
2022/10/01 03:49:29;;;;;;;0.50;0.50;;;;;;;;;;5017907;28;92077;-54
2022/10/01 03:51:58;;;;;;;0.30;0.30;;;;;;;;;;5017431;28;93738;-54
2022/10/01 03:54:26;;;;;;;0.40;0.40;;;;;;;;;;5017137;28;94417;-54
2022/10/01 03:56:54;;;;;;;0.30;0.30;;;;;;;;;;5017293;28;92079;-54
2022/10/01 03:59:22;;;;;;;0.20;0.20;;;;;;;;;;5018471;28;91293;-54
2022/10/01 04:01:52;;;;;;;0.50;0.50;;;;;;;;;;5018217;28;93941;-54
2022/10/01 04:04:20;;;;;;;0.57;0.43;;;;;;;;;;5017762;28;92031;-54
2022/10/01 04:06:49;;;;;;;0.63;0.40;;;;;;;;;;5015410;28;93173;-54
2022/10/01 04:09:17;;;;;;;1.37;0.40;;;;;;;;;;5017285;28;92133;-54
2022/10/01 04:11:45;;;;;;;0.37;0.37;;;;;;;;;;5018339;28;93938;-54
2022/10/01 04:14:13;;;;;;;0.40;0.40;;;;;;;;;;5018402;28;93946;-54
2022/10/01 04:16:42;;;;;;;3.53;0.40;;;;;;;;;;5020735;28;92390;-53
2022/10/01 04:19:12;;;;;;;0.40;0.40;;;;;;;;;;5020995;28;92125;-54
2022/10/01 04:21:41;;;;;;;0.83;0.47;;;;;;;;;;5019293;28;94264;-54
2022/10/01 04:24:09;;;;;;;0.60;0.50;;;;;;;;;;5018489;28;94007;-54
2022/10/01 04:26:37;;;;;;;0.40;0.40;;;;;;;;;;5021849;28;92058;-54
2022/10/01 04:29:05;;;;;;;0.40;0.40;;;;;;;;;;5020835;28;92185;-53
2022/10/01 04:31:34;;;;;;;0.50;0.43;;;;;;;;;;5019799;28;94427;-54
2022/10/01 04:34:03;;;;;;;0.30;0.30;;;;;;;;;;5019856;28;93759;-54
2022/10/01 04:36:33;;;;;;;0.97;0.40;;;;;;;;;;5020783;28;92166;-54
2022/10/01 04:39:01;;;;;;;0.40;0.40;;;;;;;;;;5021953;28;92144;-54
2022/10/01 04:41:30;;;;;;;0.23;0.23;;;;;;;;;;5020800;28;94488;-54
2022/10/01 04:43:59;;;;;;;0.77;0.30;;;;;;;;;;5018498;28;93723;-55
2022/10/01 04:46:28;;;;;;;1.17;0.40;;;;;;;;;;5020863;28;91967;-54
2022/10/01 04:48:56;;;;;;;0.23;0.23;;;;;;;;;;5020192;28;91294;-54
2022/10/01 04:51:25;;;;;;;0.33;0.33;;;;;;;;;;5021187;28;93208;-54
2022/10/01 04:53:54;;;;;;;1.13;0.50;;;;;;;;;;5015317;28;94143;-54
2022/10/01 04:56:22;;;;;;;0.33;0.33;;;;;;;;;;5020556;28;92852;-53
2022/10/01 04:58:51;;;;;;;1.20;0.60;;;;;;;;;;5021148;28;92157;-54
2022/10/01 05:01:19;;;;;;;0.40;0.40;;;;;;;;;;5019669;28;93157;-54
2022/10/01 05:03:47;;;;;;;0.67;0.67;;;;;;;;;;5018431;28;93782;-54
2022/10/01 05:06:16;;;;;;;0.57;0.37;;;;;;;;;;5020028;28;92056;-54
2022/10/01 05:08:44;;;;;;;0.30;0.30;;;;;;;;;;5006649;28;92120;-53
2022/10/01 05:11:13;;;;;;;1.50;0.60;;;;;;;;;;5020838;28;92052;-54
2022/10/01 05:13:42;;;;;;;1.40;0.33;;;;;;;;;;5019842;28;92761;-54
2022/10/01 05:16:11;;;;;;;0.50;0.50;;;;;;;;;;5020408;28;92120;-54
2022/10/01 05:18:39;;;;;;;0.23;0.23;;;;;;;;;;5020201;28;92227;-54
2022/10/01 05:21:08;;;;;;;0.47;0.40;;;;;;;;;;5019529;28;94079;-54
2022/10/01 05:23:37;;;;;;;0.60;0.30;;;;;;;;;;5019566;28;93898;-54
2022/10/01 05:26:05;;;;;;;0.30;0.30;;;;;;;;;;5012159;28;92116;-55
2022/10/01 05:28:35;;;;;;;0.87;0.40;;;;;;;;;;5010790;28;91929;-54
2022/10/01 05:31:03;;;;;;;0.43;0.43;;;;;;;;;;5016999;28;94045;-52
2022/10/01 05:33:32;;;;;;;0.40;0.40;;;;;;;;;;5018828;28;93743;-51
2022/10/01 05:36:02;;;;;;;0.60;0.60;;;;;;;;;;5018278;28;93701;-52
2022/10/01 05:38:30;;;;;;;0.10;0.10;;;;;;;;;;5021204;28;91350;-52
2022/10/01 05:40:58;;;;;;;0.33;0.33;;;;;;;;;;5019850;28;93999;-52
2022/10/01 05:43:27;;;;;;;0.63;0.37;;;;;;;;;;5019500;28;93876;-51
2022/10/01 05:45:56;;;;;;;0.30;0.30;;;;;;;;;;5019506;28;92966;-52
2022/10/01 05:48:25;;;;;;;0.60;0.60;;;;;;;;;;5020387;28;92067;-52
2022/10/01 05:50:53;;;;;;;0.37;0.37;;;;;;;;;;5020046;28;93576;-52
2022/10/01 05:53:22;;;;;;;0.30;0.30;;;;;;;;;;5018536;28;92633;-52
2022/10/01 05:55:50;;;;;;;0.37;0.37;;;;;;;;;;5020518;28;91992;-52
2022/10/01 05:58:19;;;;;;;0.40;0.40;;;;;;;;;;5020464;28;91888;-52
2022/10/01 06:00:47;;;;;;;0.60;0.60;;;;;;;;;;5018905;28;93581;-52
2022/10/01 06:03:16;;;;;;;0.60;0.60;;;;;;;;;;5019339;28;94109;-51
2022/10/01 06:05:45;;;;;;;0.83;0.40;;;;;;;;;;5019389;28;92179;-51
2022/10/01 06:08:13;;;;;;;0.27;0.23;;;;;;;;;;5019579;28;92214;-51
2022/10/01 06:10:41;;;;;;;0.30;0.30;;;;;;;;;;5018485;28;93113;-51
2022/10/01 06:13:12;;;;;;;0.30;0.30;;;;;;;;;;5016284;28;93815;-52
2022/10/01 06:15:40;;;;;;;0.20;0.20;;;;;;;;;;5025266;28;92011;-54
2022/10/01 06:18:09;;;;;;;0.53;0.40;;;;;;;;;;5004756;28;92030;-52
2022/10/01 06:20:39;;;;;;;0.40;0.40;;;;;;;;;;5019661;28;92989;-52
2022/10/01 06:23:10;;;;;;;0.83;0.40;;;;;;;;;;5018554;28;93918;-51
2022/10/01 06:25:39;;;;;;;0.40;0.40;;;;;;;;;;5019581;28;92086;-51
2022/10/01 06:28:07;;;;;;;0.60;0.40;;;;;;;;;;5018933;28;91414;-51
2022/10/01 06:30:36;;;;;;;0.40;0.40;;;;;;;;;;5018766;28;94249;-52
2022/10/01 06:33:05;;;;;;;0.73;0.47;;;;;;;;;;5015826;28;92651;-51
2022/10/01 06:35:34;;;;;;;1.10;0.40;;;;;;;;;;5018744;28;93181;-52
2022/10/01 06:38:05;;;;;;;0.53;0.50;;;;;;;;;;5019510;28;92030;-51
2022/10/01 06:40:33;;;;;;;1.03;0.40;;;;;;;;;;5017937;28;92231;-52
2022/10/01 06:43:01;;;;;;;0.33;0.30;;;;;;;;;;5018463;28;92594;-52
2022/10/01 06:45:30;;;;;;;0.47;0.47;;;;;;;;;;5019164;28;91992;-51
2022/10/01 06:48:01;;;;;;;0.60;0.60;;;;;;;;;;5018370;28;92173;-52
2022/10/01 06:50:29;;;;;;;0.20;0.20;;;;;;;;;;5017964;28;93050;-51
2022/10/01 06:52:58;;;;;;;0.50;0.50;;;;;;;;;;5018077;28;93916;-53
2022/10/01 06:55:28;;;;;;;0.40;0.40;;;;;;;;;;5019418;28;93829;-51
2022/10/01 06:57:57;;;;;;;0.30;0.30;;;;;;;;;;5018827;28;92051;-51
2022/10/01 07:00:25;;;;;;;0.30;0.30;;;;;;;;;;5016959;28;94133;-52
2022/10/01 07:02:54;;;;;;;0.30;0.30;;;;;;;;;;5017683;28;93497;-52
2022/10/01 07:05:22;;;;;;;0.80;0.80;;;;;;;;;;5018284;28;92172;-51
2022/10/01 07:07:51;;;;;;;0.50;0.50;;;;;;;;;;5018966;28;92084;-51
2022/10/01 07:10:19;;;;;;;0.87;0.30;;;;;;;;;;5018596;28;92936;-51
2022/10/01 07:12:49;;;;;;;0.20;0.20;;;;;;;;;;5017349;28;93976;-52
2022/10/01 07:15:18;;;;;;;0.30;0.30;;;;;;;;;;5018136;28;92029;-51
2022/10/01 07:17:47;;;;;;;0.40;0.40;;;;;;;;;;5019290;28;91154;-52
2022/10/01 07:20:17;;;;;;;0.20;0.20;;;;;;;;;;5017468;28;93514;-51
2022/10/01 07:22:45;;;;;;;15.03;0.60;;;;;;;;;;5016972;28;93576;-52
2022/10/01 07:25:13;;;;;;;0.30;0.30;;;;;;;;;;5018153;28;93017;-50
2022/10/01 07:27:42;;;;;;;0.60;0.60;;;;;;;;;;5018064;28;92455;-50
2022/10/01 07:30:12;;;;;;;1.70;0.60;;;;;;;;;;5015635;28;93076;-51
2022/10/01 07:32:41;;;;;;;0.40;0.40;;;;;;;;;;5006847;28;92874;-50
2022/10/01 07:35:09;;;;;;;0.97;0.43;;;;;;;;;;5017983;28;93662;-50
2022/10/01 07:37:38;;;;;;;0.67;0.67;;;;;;;;;;5016111;28;94062;-50
2022/10/01 07:40:07;;;;;;;0.73;0.53;;;;;;;;;;5016950;28;93244;-50
2022/10/01 07:42:36;;;;;;;4.73;0.93;;;;;;;;;;5015883;28;92453;-50
2022/10/01 07:45:05;;;;;;;0.60;0.60;;;;;;;;;;5017648;28;92063;-51
2022/10/01 07:47:35;;;;;;;0.93;0.70;;;;;;;;;;5015820;28;93993;-50
2022/10/01 07:50:05;;;;;;;1.83;0.73;;;;;;;;;;5020154;28;94083;-51
2022/10/01 07:52:34;;;;;;;1.33;0.90;;;;;;;;;;5018581;28;94390;-50
2022/10/01 07:55:02;;;;;;;4.83;1.10;;;;;;;;;;5021019;28;92102;-50
2022/10/01 07:57:31;;;;;;;0.80;0.80;;;;;;;;;;5020080;28;92545;-50
2022/10/01 08:00:00;;;;;;;0.60;0.60;;;;;;;;;;5016051;28;94287;-50
2022/10/01 08:02:28;;;;;;;2.13;0.70;;;;;;;;;;5017461;28;92831;-50
2022/10/01 08:07:44;;;;;;;1.03;0.93;;;;;;;;;;5018473;28;91756;-50
2022/10/01 08:10:12;;;;;;;1.33;0.97;;;;;;;;;;5020191;28;93289;-51
2022/10/01 08:12:41;;;;;;;2.63;1.17;;;;;;;;;;5017932;28;92167;-50
2022/10/01 08:15:10;;;;;;;3.23;1.40;;;;;;;;;;5016164;28;93006;-51
2022/10/01 08:17:39;;;;;;;3.93;1.33;;;;;;;;;;5020342;28;92029;-51
2022/10/01 08:20:09;;;;;;;0.73;0.73;;;;;;;;;;5018245;28;93294;-51
2022/10/01 08:22:37;;;;;;;2.33;1.33;;;;;;;;;;5019366;28;92816;-51
2022/10/01 08:25:09;;;;;;;9.20;1.37;;;;;;;;;;5014344;28;92174;-51
2022/10/01 08:27:37;;;;;;;0.73;0.73;;;;;;;;;;5020886;28;92035;-51
2022/10/01 08:30:06;;;;;;;1.03;0.93;;;;;;;;;;5013891;28;93276;-51
2022/10/01 08:32:35;;;;;;;1.13;1.03;;;;;;;;;;5019410;28;93800;-50
2022/10/01 08:35:03;;;;;;;1.77;1.40;;;;;;;;;;5021426;28;92223;-50
2022/10/01 08:37:33;;;;;;;2.60;1.20;;;;;;;;;;5017692;28;92028;-51
2022/10/01 08:40:02;;;;;;;2.77;1.70;;;;;;;;;;5013821;28;93994;-51
2022/10/01 08:42:34;;;;;;;4.40;1.67;;;;;;;;;;5019813;28;93772;-51
2022/10/01 08:45:05;;;;;;;1.77;1.17;;;;;;;;;;5017483;28;92354;-51
2022/10/01 08:47:34;;;;;;;4.10;0.90;;;;;;;;;;5017123;28;92499;-51
2022/10/01 08:50:04;;;;;;;2.57;1.03;;;;;;;;;;5017454;28;92778;-51
2022/10/01 08:52:34;;;;;;;1.73;1.40;;;;;;;;;;5014245;28;92832;-51
2022/10/01 08:55:03;;;;;;;8.43;3.00;;;;;;;;;;5017858;28;92234;-51
2022/10/01 08:57:32;;;;;;;2.33;1.53;;;;;;;;;;5024536;28;91529;-51
2022/10/01 09:00:01;;;;;;;3.00;1.63;;;;;;;;;;5024956;28;96916;-50
2022/10/01 09:02:30;;;;;;;2.83;1.10;;;;;;;;;;5018817;28;94009;-51
2022/10/01 09:05:00;;;;;;;3.67;1.50;;;;;;;;;;5021661;28;93184;-51
2022/10/01 09:07:32;;;;;;;3.10;1.43;;;;;;;;;;5013693;28;94137;-50
2022/10/01 09:10:03;;;;;;;2.20;1.43;;;;;;;;;;5018680;28;92909;-51
2022/10/01 09:12:32;;;;;;;4.77;1.50;;;;;;;;;;5019208;28;92800;-50
2022/10/01 09:15:04;;;;;;;2.83;1.67;;;;;;;;;;5013519;28;92481;-50
2022/10/01 09:17:38;;;;;;;1.93;1.40;;;;;;;;;;5015934;28;92653;-50
2022/10/01 09:20:11;;;;;;;2.93;1.17;;;;;;;;;;5021913;28;94169;-50
2022/10/01 09:22:40;;;;;;;4.73;1.30;;;;;;;;;;5026665;28;93794;-50
2022/10/01 09:25:18;;;;;;;14.30;2.20;;;;;;;;;;5033931;28;92065;-51
2022/10/01 09:27:46;;;;;;;4.73;1.87;;;;;;;;;;5032463;28;92170;-51
2022/10/01 09:30:15;;;;;;;3.23;2.23;;;;;;;;;;5028311;28;94690;-50
2022/10/01 09:32:45;;;;;;;4.50;1.27;;;;;;;;;;5031325;28;93667;-50
2022/10/01 09:35:19;;;;;;;3.30;1.73;;;;;;;;;;5019836;28;92136;-51
2022/10/01 09:37:49;;;;;;;4.17;2.33;;;;;;;;;;5029546;28;91973;-50
2022/10/01 09:40:20;;;;;;;3.03;1.93;;;;;;;;;;5024849;28;94105;-51
2022/10/01 09:42:49;;;;;;;4.97;2.07;;;;;;;;;;5027877;28;93994;-50
2022/10/01 09:45:18;;;;;;;3.53;1.43;;;;;;;;;;5018585;28;92515;-50
2022/10/01 09:47:48;;;;;;;4.33;1.77;;;;;;;;;;5027719;28;91321;-50
2022/10/01 09:50:17;;;;;;;4.30;1.83;;;;;;;;;;5021307;28;93663;-51
2022/10/01 09:52:47;;;;;;;6.40;2.77;;;;;;;;;;5023184;28;95358;-51
2022/10/01 09:55:20;;;;;;;6.97;1.87;;;;;;;;;;5032803;28;93415;-50
2022/10/01 09:57:51;;;;;;;3.83;2.20;;;;;;;;;;5019449;28;93573;-50
2022/10/01 10:00:19;;;;;;;5.17;1.70;;;;;;;;;;5025211;28;93196;-50
2022/10/01 10:02:48;;;;;;;3.83;1.80;;;;;;;;;;5019626;28;92750;-50
2022/10/01 10:05:17;;;;;;;2.87;2.00;;;;;;;;;;5018179;28;92041;-51
2022/10/01 10:07:46;;;;;;;4.07;2.07;;;;;;;;;;5020742;28;92007;-51
2022/10/01 10:10:19;;;;;;;3.97;1.80;;;;;;;;;;5019795;28;92102;-50
2022/10/01 10:12:55;;;;;;;3.87;2.13;;;;;;;;;;5031847;28;93268;-51
2022/10/01 10:15:25;;;;;;;7.10;2.00;;;;;;;;;;5019874;28;92193;-51
2022/10/01 10:17:54;;;;;;;2.30;2.00;;;;;;;;;;5016711;28;92107;-51
2022/10/01 10:20:27;;;;;;;3.27;2.37;;;;;;;;;;5005343;28;94014;-50
2022/10/01 10:23:06;;;;;;;3.17;1.87;;;;;;;;;;5017698;28;94862;-51
2022/10/01 10:25:35;;;;;;;3.07;1.57;;;;;;;;;;5009320;28;92157;-51
2022/10/01 10:28:04;;;;;;;8.23;2.53;;;;;;;;;;5013697;28;92663;-51
2022/10/01 10:30:33;;;;;;;4.00;2.00;;;;;;;;;;5015659;28;93025;-51
2022/10/01 10:33:05;;;;;;;5.03;1.53;;;;;;;;;;5013352;28;93485;-51
2022/10/01 10:35:33;;;;;;;3.83;1.73;;;;;;;;;;5014689;28;92098;-50
2022/10/01 10:38:01;;;;;;;3.57;1.87;;;;;;;;;;5016572;28;92696;-51
2022/10/01 10:40:32;;;;;;;4.77;1.77;;;;;;;;;;5017586;28;94101;-51
2022/10/01 10:43:01;;;;;;;1.53;1.33;;;;;;;;;;5020552;28;92096;-52
2022/10/01 10:45:32;;;;;;;4.13;1.80;;;;;;;;;;5018809;28;92941;-50
2022/10/01 10:48:00;;;;;;;4.00;1.97;;;;;;;;;;5018493;28;92021;-50
2022/10/01 10:50:30;;;;;;;5.03;2.07;;;;;;;;;;5016347;28;92978;-50
2022/10/01 10:52:58;;;;;;;3.73;1.60;;;;;;;;;;5017604;28;92915;-51
2022/10/01 10:55:27;;;;;;;5.33;2.30;;;;;;;;;;5018769;28;92148;-50
2022/10/01 10:57:56;;;;;;;3.70;1.87;;;;;;;;;;5013625;28;92266;-50
2022/10/01 11:00:28;;;;;;;4.33;1.63;;;;;;;;;;5018585;28;92100;-50
2022/10/01 11:02:57;;;;;;;5.60;1.80;;;;;;;;;;5018865;28;92890;-50
2022/10/01 11:05:28;;;;;;;3.03;1.77;;;;;;;;;;5015931;28;92181;-51
2022/10/01 11:07:57;;;;;;;1.77;1.40;;;;;;;;;;5016891;28;92437;-50
2022/10/01 11:10:28;;;;;;;3.20;1.83;;;;;;;;;;5018438;28;95289;-51
2022/10/01 11:13:01;;;;;;;2.67;1.80;;;;;;;;;;5018735;28;93887;-50
2022/10/01 11:15:35;;;;;;;2.80;1.67;;;;;;;;;;5018967;28;92146;-50
2022/10/01 11:18:19;;;;;;;3.43;1.80;;;;;;;;;;5030509;28;92155;-51
2022/10/01 11:20:50;;;;;;;6.83;1.83;;;;;;;;;;5037934;28;93140;-50
2022/10/01 11:23:28;;;;;;;3.83;1.70;;;;;;;;;;5037738;27;92978;-51
2022/10/01 11:26:01;;;;;;;4.70;1.77;;;;;;;;;;4999126;28;92057;-50
2022/10/01 11:28:32;;;;;;;3.60;1.90;;;;;;;;;;5013374;28;91420;-50
2022/10/01 11:31:03;;;;;;;4.70;1.93;;;;;;;;;;5038025;28;93798;-51
2022/10/01 11:33:33;;;;;;;3.83;2.20;;;;;;;;;;5014690;28;92781;-50
2022/10/01 11:36:03;;;;;;;6.30;2.03;;;;;;;;;;5020153;28;93059;-50
2022/10/01 11:38:38;;;;;;;5.20;1.50;;;;;;;;;;5035988;28;92084;-51
2022/10/01 11:41:09;;;;;;;2.50;1.60;;;;;;;;;;5019768;28;94159;-50
2022/10/01 11:43:38;;;;;;;4.10;1.83;;;;;;;;;;5016937;28;95058;-51
2022/10/01 11:46:09;;;;;;;2.20;1.30;;;;;;;;;;5016066;28;92349;-50
2022/10/01 11:48:38;;;;;;;4.37;1.67;;;;;;;;;;5015702;28;92021;-51
2022/10/01 11:51:08;;;;;;;3.37;2.10;;;;;;;;;;5017477;28;92180;-50
2022/10/01 11:53:37;;;;;;;2.53;1.30;;;;;;;;;;5017722;28;93548;-50
2022/10/01 11:58:54;;;;;;;3.73;1.77;;;;;;;;;;5019285;28;92108;-50
2022/10/01 12:01:27;;;;;;;1.37;1.20;;;;;;;;;;5018247;28;94128;-50
2022/10/01 12:03:59;;;;;;;3.93;1.30;;;;;;;;;;5018325;28;93686;-50
2022/10/01 12:06:27;;;;;;;3.47;1.43;;;;;;;;;;5018378;28;92077;-50
2022/10/01 12:09:01;;;;;;;5.43;1.87;;;;;;;;;;5018925;28;92220;-50
2022/10/01 12:11:30;;;;;;;1.70;1.10;;;;;;;;;;5017524;28;93183;-51
2022/10/01 12:13:59;;;;;;;4.23;1.10;;;;;;;;;;5017673;28;93896;-50
2022/10/01 12:16:34;;;;;;;1.47;1.23;;;;;;;;;;5018590;28;91842;-51
2022/10/01 12:19:04;;;;;;;2.80;1.13;;;;;;;;;;5018643;28;91340;-50
2022/10/01 12:21:34;;;;;;;4.37;1.60;;;;;;;;;;5018061;28;93053;-51
2022/10/01 12:24:04;;;;;;;3.87;1.40;;;;;;;;;;5017967;28;92963;-51
2022/10/01 12:26:35;;;;;;;4.57;1.57;;;;;;;;;;5018251;28;92899;-52
2022/10/01 12:29:06;;;;;;;1.53;1.03;;;;;;;;;;5018907;28;92056;-51
2022/10/01 12:31:38;;;;;;;2.00;1.00;;;;;;;;;;5018294;28;92740;-51
2022/10/01 12:34:09;;;;;;;4.13;0.97;;;;;;;;;;5018673;28;92025;-52
2022/10/01 12:36:39;;;;;;;2.57;0.93;;;;;;;;;;5021678;28;92012;-51
2022/10/01 12:39:12;;;;;;;2.93;1.03;;;;;;;;;;5021777;28;92041;-51
2022/10/01 12:41:43;;;;;;;7.13;1.50;;;;;;;;;;5021677;28;93070;-51
2022/10/01 12:44:26;;;;;;;1.80;0.80;;;;;;;;;;5021327;28;91856;-50
2022/10/01 12:46:58;;;;;;;0.90;0.90;;;;;;;;;;5021379;28;92014;-50
2022/10/01 12:49:28;;;;;;;2.17;1.17;;;;;;;;;;5021012;28;92100;-50
2022/10/01 12:51:58;;;;;;;2.53;1.07;;;;;;;;;;5020851;28;94146;-51
2022/10/01 12:54:31;;;;;;;4.10;0.83;;;;;;;;;;5021372;28;94634;-51
2022/10/01 12:57:00;;;;;;;0.60;0.60;;;;;;;;;;5021769;28;92136;-51
2022/10/01 12:59:32;;;;;;;1.90;1.10;;;;;;;;;;5021555;28;92065;-50
2022/10/01 13:02:06;;;;;;;1.40;0.60;;;;;;;;;;5020674;28;93247;-50
2022/10/01 13:04:38;;;;;;;0.73;0.57;;;;;;;;;;5020754;28;92029;-50
2022/10/01 13:07:20;;;;;;;1.27;0.47;;;;;;;;;;5021657;28;91887;-50
2022/10/01 13:09:50;;;;;;;1.77;0.60;;;;;;;;;;5021609;28;91288;-50
2022/10/01 13:12:24;;;;;;;1.13;0.90;;;;;;;;;;5020958;28;94177;-50
2022/10/01 13:14:53;;;;;;;0.50;0.50;;;;;;;;;;5020588;28;92859;-50
2022/10/01 13:17:24;;;;;;;1.43;0.50;;;;;;;;;;5020557;28;92932;-50
2022/10/01 13:19:54;;;;;;;0.83;0.57;;;;;;;;;;5021426;28;92114;-51
2022/10/01 13:22:24;;;;;;;1.47;0.77;;;;;;;;;;5021219;28;91991;-50
2022/10/01 13:24:53;;;;;;;1.90;1.10;;;;;;;;;;5020407;28;92808;-51
2022/10/01 13:27:23;;;;;;;0.80;0.80;;;;;;;;;;5020948;28;92066;-50
2022/10/01 13:29:53;;;;;;;0.50;0.40;;;;;;;;;;5021332;28;92029;-50
2022/10/01 13:32:27;;;;;;;0.60;0.60;;;;;;;;;;5020427;28;92874;-50
2022/10/01 13:34:55;;;;;;;1.60;0.50;;;;;;;;;;5020814;28;92777;-51
2022/10/01 13:37:34;;;;;;;0.87;0.47;;;;;;;;;;5020810;28;92072;-51
2022/10/01 13:40:02;;;;;;;0.60;0.47;;;;;;;;;;5021334;28;92097;-51
2022/10/01 13:42:31;;;;;;;1.27;0.63;;;;;;;;;;5019556;28;94377;-51
2022/10/01 13:45:02;;;;;;;1.87;0.80;;;;;;;;;;5020248;28;92482;-50
2022/10/01 13:47:31;;;;;;;3.60;0.77;;;;;;;;;;5020614;28;91899;-51
2022/10/01 13:50:02;;;;;;;1.47;0.53;;;;;;;;;;5020527;28;92142;-51
2022/10/01 13:52:31;;;;;;;3.93;0.50;;;;;;;;;;5019421;28;94570;-51
2022/10/01 13:55:00;;;;;;;1.53;0.50;;;;;;;;;;5020307;28;92834;-51
2022/10/01 13:57:29;;;;;;;2.57;0.60;;;;;;;;;;5020494;28;92050;-51
2022/10/01 13:59:58;;;;;;;3.03;1.07;;;;;;;;;;5020635;28;92380;-51
2022/10/01 14:02:32;;;;;;;1.20;0.90;;;;;;;;;;5019625;28;93201;-51
2022/10/01 14:05:08;;;;;;;0.90;0.80;;;;;;;;;;5019172;28;93734;-51
2022/10/01 14:07:37;;;;;;;1.80;1.07;;;;;;;;;;5019001;28;92994;-51
2022/10/01 14:10:05;;;;;;;2.10;1.13;;;;;;;;;;5020427;28;92039;-51
2022/10/01 14:18:09;;;;;;;2.40;1.63;;;;;;;;;;5020274;28;92588;-51
2022/10/01 14:20:45;;;;;;;4.60;1.93;;;;;;;;;;5019761;28;91901;-51
2022/10/01 14:23:14;;;;;;;2.17;1.63;;;;;;;;;;5018974;28;92231;-51
2022/10/01 14:25:44;;;;;;;3.67;1.80;;;;;;;;;;5019627;28;93874;-51
2022/10/01 14:28:21;;;;;;;3.83;1.60;;;;;;;;;;5019688;28;91776;-51
2022/10/01 14:30:50;;;;;;;6.83;2.30;;;;;;;;;;5020275;28;92034;-51
2022/10/01 14:33:35;;;;;;;5.07;1.67;;;;;;;;;;5018740;28;95228;-51
2022/10/01 14:36:03;;;;;;;2.93;1.83;;;;;;;;;;5017384;28;93771;-50
2022/10/01 14:38:32;;;;;;;5.00;2.00;;;;;;;;;;5018999;28;92186;-51
2022/10/01 14:41:00;;;;;;;6.53;2.00;;;;;;;;;;5019425;28;91985;-51
2022/10/01 14:43:29;;;;;;;5.57;2.20;;;;;;;;;;5019159;28;93136;-51
2022/10/01 14:45:58;;;;;;;3.47;2.37;;;;;;;;;;5019011;28;94216;-51
2022/10/01 14:48:28;;;;;;;3.93;1.40;;;;;;;;;;5020103;28;91941;-51
2022/10/01 14:50:58;;;;;;;5.80;2.13;;;;;;;;;;5019961;28;91285;-50
2022/10/01 14:53:27;;;;;;;3.70;2.10;;;;;;;;;;5019546;28;94365;-50
2022/10/01 14:55:56;;;;;;;4.00;1.83;;;;;;;;;;5019317;28;92533;-50
2022/10/01 14:58:25;;;;;;;3.03;1.53;;;;;;;;;;5018874;28;92963;-50
2022/10/01 15:00:54;;;;;;;2.83;1.57;;;;;;;;;;5018112;28;92153;-51
2022/10/01 15:03:22;;;;;;;4.97;1.90;;;;;;;;;;5019297;28;92917;-50
2022/10/01 15:05:52;;;;;;;5.60;1.57;;;;;;;;;;5019146;28;92934;-52
2022/10/01 15:08:21;;;;;;;5.27;2.17;;;;;;;;;;5019318;28;92144;-54
2022/10/01 15:10:50;;;;;;;6.90;1.60;;;;;;;;;;5019400;28;92012;-52